createdAt,value
2022-08-30T00:00:49.842Z,16.48
2022-08-30T00:03:52.940Z,16.47
2022-08-30T00:06:55.000Z,16.45
2022-08-30T00:09:59.118Z,16.36
2022-08-30T00:13:02.490Z,16.42
2022-08-30T00:16:07.272Z,16.37
2022-08-30T00:19:09.278Z,16.38
2022-08-30T00:22:11.804Z,16.33
2022-08-30T00:25:15.971Z,16.31
2022-08-30T00:28:18.231Z,16.36
2022-08-30T00:31:20.463Z,16.40
2022-08-30T00:34:22.406Z,16.33
2022-08-30T00:37:24.999Z,16.24
2022-08-30T00:40:28.185Z,16.12
2022-08-30T00:43:32.180Z,16.01
2022-08-30T00:46:34.583Z,16.00
2022-08-30T00:49:37.765Z,15.97
2022-08-30T00:52:41.803Z,15.99
2022-08-30T00:55:44.413Z,15.95
2022-08-30T00:58:49.612Z,15.85
2022-08-30T01:01:52.732Z,15.88
2022-08-30T01:04:55.677Z,15.89
2022-08-30T01:07:57.716Z,15.89
2022-08-30T01:11:00.227Z,15.84
2022-08-30T01:14:05.245Z,15.83
2022-08-30T01:17:07.976Z,15.84
2022-08-30T01:20:18.396Z,15.79
2022-08-30T01:23:21.536Z,15.73
2022-08-30T01:26:24.832Z,15.81
2022-08-30T01:29:26.901Z,15.81
2022-08-30T01:32:30.051Z,15.76
2022-08-30T01:35:43.969Z,15.67
2022-08-30T01:38:54.975Z,15.65
2022-08-30T01:41:56.944Z,15.64
2022-08-30T01:44:59.146Z,15.65
2022-08-30T01:48:01.669Z,15.57
2022-08-30T01:51:05.429Z,15.56
2022-08-30T01:54:10.457Z,15.56
2022-08-30T01:57:22.950Z,15.57
2022-08-30T02:00:24.998Z,15.43
2022-08-30T02:03:31.238Z,15.37
2022-08-30T02:06:33.181Z,15.35
2022-08-30T02:09:35.078Z,15.36
2022-08-30T02:12:36.923Z,15.39
2022-08-30T02:15:41.406Z,15.33
2022-08-30T02:18:45.366Z,15.39
2022-08-30T02:21:47.294Z,15.28
2022-08-30T02:24:49.339Z,15.23
2022-08-30T02:27:51.250Z,15.17
2022-08-30T02:30:53.676Z,15.18
2022-08-30T02:33:55.696Z,15.12
2022-08-30T02:36:57.510Z,15.08
2022-08-30T02:39:59.378Z,15.10
2022-08-30T02:43:01.392Z,15.07
2022-08-30T02:46:03.627Z,15.12
2022-08-30T02:49:30.283Z,15.12
2022-08-30T02:52:29.374Z,15.07
2022-08-30T02:55:31.583Z,15.12
2022-08-30T02:58:36.941Z,15.04
2022-08-30T03:01:39.627Z,15.00
2022-08-30T03:04:41.459Z,15.00
2022-08-30T03:07:45.712Z,14.96
2022-08-30T03:10:47.574Z,14.94
2022-08-30T03:13:49.605Z,14.88
2022-08-30T03:16:51.700Z,14.89
2022-08-30T03:19:54.365Z,14.83
2022-08-30T03:22:56.236Z,14.88
2022-08-30T03:25:58.163Z,14.77
2022-08-30T03:29:00.081Z,14.74
2022-08-30T03:32:02.878Z,14.78
2022-08-30T03:35:05.785Z,14.72
2022-08-30T03:38:07.786Z,14.81
2022-08-30T03:41:09.920Z,14.80
2022-08-30T03:44:12.035Z,14.79
2022-08-30T03:47:14.886Z,14.73
2022-08-30T03:50:17.438Z,14.82
2022-08-30T03:53:19.765Z,14.79
2022-08-30T03:56:22.304Z,14.78
2022-08-30T03:59:24.331Z,14.82
2022-08-30T04:02:26.928Z,14.84
2022-08-30T04:05:29.444Z,14.73
2022-08-30T04:08:31.527Z,14.65
2022-08-30T04:11:34.479Z,14.75
2022-08-30T04:14:36.365Z,14.74
2022-08-30T04:17:38.333Z,14.71
2022-08-30T04:20:40.518Z,14.71
2022-08-30T04:23:43.703Z,14.79
2022-08-30T04:26:46.059Z,14.82
2022-08-30T04:29:48.366Z,14.85
2022-08-30T04:32:52.064Z,14.86
2022-08-30T04:36:04.087Z,14.86
2022-08-30T04:39:07.385Z,14.91
2022-08-30T04:42:11.789Z,15.51
2022-08-30T04:45:16.431Z,16.09
2022-08-30T04:48:18.677Z,16.13
2022-08-30T04:51:20.709Z,16.24
2022-08-30T04:54:22.832Z,16.00
2022-08-30T04:57:25.718Z,15.98
2022-08-30T05:00:28.049Z,15.78
2022-08-30T05:03:30.594Z,15.88
2022-08-30T05:06:32.708Z,15.90
2022-08-30T05:09:34.717Z,15.87
2022-08-30T05:12:36.696Z,16.02
2022-08-30T05:15:40.757Z,16.14
2022-08-30T05:18:42.703Z,16.04
2022-08-30T05:21:45.298Z,16.08
2022-08-30T05:24:47.580Z,16.13
2022-08-30T05:27:49.614Z,16.11
2022-08-30T05:30:54.121Z,16.13
2022-08-30T05:33:56.552Z,16.26
2022-08-30T05:36:59.825Z,16.33
2022-08-30T05:40:11.105Z,16.52
2022-08-30T05:43:14.469Z,16.58
2022-08-30T05:46:20.157Z,16.60
2022-08-30T05:49:22.454Z,16.71
2022-08-30T05:52:24.445Z,16.80
2022-08-30T05:55:29.682Z,16.96
2022-08-30T05:58:32.058Z,17.22
2022-08-30T06:01:38.023Z,17.32
2022-08-30T06:04:42.037Z,17.39
2022-08-30T06:07:46.039Z,17.66
2022-08-30T06:10:49.530Z,17.92
2022-08-30T06:13:54.137Z,17.92
2022-08-30T06:16:56.112Z,18.15
2022-08-30T06:19:59.235Z,18.38
2022-08-30T06:23:01.718Z,18.22
2022-08-30T06:26:06.001Z,18.46
2022-08-30T06:29:10.125Z,18.68
2022-08-30T06:32:12.279Z,18.80
2022-08-30T06:35:14.583Z,18.90
2022-08-30T06:38:19.261Z,19.08
2022-08-30T06:41:24.230Z,19.25
2022-08-30T06:44:27.004Z,19.55
2022-08-30T06:47:30.192Z,19.88
2022-08-30T06:50:32.601Z,19.83
2022-08-30T06:53:36.138Z,20.07
2022-08-30T06:56:40.330Z,20.27
2022-08-30T06:59:44.889Z,20.30
2022-08-30T07:02:47.318Z,20.47
2022-08-30T07:05:50.907Z,20.47
2022-08-30T07:08:56.430Z,20.72
2022-08-30T07:12:03.393Z,20.61
2022-08-30T07:15:08.223Z,20.71
2022-08-30T07:18:30.812Z,20.95
2022-08-30T07:21:36.482Z,20.99
2022-08-30T07:24:38.970Z,21.26
2022-08-30T07:27:41.839Z,21.14
2022-08-30T07:30:44.151Z,21.18
2022-08-30T07:33:48.044Z,21.05
2022-08-30T07:36:50.281Z,21.37
2022-08-30T07:39:52.709Z,21.57
2022-08-30T07:42:55.341Z,21.50
2022-08-30T07:46:05.882Z,21.54
2022-08-30T07:49:11.096Z,21.49
2022-08-30T07:52:13.927Z,21.51
2022-08-30T07:55:16.604Z,21.53
2022-08-30T07:58:21.780Z,21.54
2022-08-30T08:01:24.224Z,21.79
2022-08-30T08:28:02.854Z,22.17
2022-08-30T08:31:18.231Z,22.31
2022-08-30T08:34:23.825Z,22.47
2022-08-30T08:37:28.268Z,22.53
2022-08-30T08:40:36.602Z,22.62
2022-08-30T08:43:38.864Z,22.76
2022-08-30T08:46:58.190Z,22.89
2022-08-30T08:50:05.931Z,22.77
2022-08-30T08:53:52.766Z,22.90
2022-08-30T08:56:55.115Z,22.97
2022-08-30T09:00:00.479Z,22.82
2022-08-30T09:03:05.974Z,23.23
2022-08-30T09:06:46.081Z,23.40
2022-08-30T09:09:49.081Z,23.56
2022-08-30T09:12:51.184Z,23.68
2022-08-30T09:15:59.588Z,23.67
2022-08-30T09:19:02.789Z,23.98
2022-08-30T09:22:24.874Z,23.86
2022-08-30T09:25:41.859Z,24.13
2022-08-30T09:28:49.475Z,24.18
2022-08-30T09:32:22.532Z,24.08
2022-08-30T09:35:37.756Z,24.46
2022-08-30T09:38:40.121Z,24.45
2022-08-30T09:41:44.986Z,24.71
2022-08-30T09:44:47.343Z,24.98
2022-08-30T09:47:49.430Z,24.80
2022-08-30T09:51:06.126Z,24.34
2022-08-30T09:54:17.870Z,24.12
2022-08-30T09:57:53.342Z,24.52
2022-08-30T10:01:20.473Z,24.71
2022-08-30T10:04:41.434Z,24.79
2022-08-30T10:08:19.560Z,24.81
2022-08-30T10:11:43.962Z,24.85
2022-08-30T10:14:49.583Z,25.00
2022-08-30T10:17:56.269Z,24.94
2022-08-30T10:21:19.034Z,25.13
2022-08-30T10:24:31.238Z,24.95
2022-08-30T10:27:42.963Z,25.42
2022-08-30T10:30:54.138Z,25.38
2022-08-30T10:34:01.194Z,25.53
2022-08-30T10:37:12.481Z,25.48
2022-08-30T10:40:53.334Z,25.54
2022-08-30T10:44:00.113Z,25.80
2022-08-30T10:47:23.113Z,25.65
2022-08-30T10:50:30.018Z,25.63
2022-08-30T10:53:39.836Z,25.84
2022-08-30T10:56:43.928Z,25.75
2022-08-30T10:59:51.229Z,25.79
2022-08-30T11:03:12.045Z,25.92
2022-08-30T11:06:53.883Z,25.83
2022-08-30T11:10:26.296Z,25.80
2022-08-30T11:13:30.798Z,25.97
2022-08-30T11:16:48.470Z,26.18
2022-08-30T11:19:51.086Z,26.16
2022-08-30T11:23:16.105Z,26.65
2022-08-30T11:26:48.603Z,26.12
2022-08-30T11:29:50.958Z,26.44
2022-08-30T11:33:09.847Z,26.58
2022-08-30T11:36:37.401Z,26.63
2022-08-30T11:39:41.029Z,26.80
2022-08-30T11:42:46.196Z,26.62
2022-08-30T11:45:52.711Z,26.67
2022-08-30T11:49:15.588Z,26.67
2022-08-30T11:52:46.947Z,26.41
2022-08-30T11:56:10.449Z,26.95
2022-08-30T11:59:27.854Z,27.40
2022-08-30T12:02:53.168Z,27.04
2022-08-30T12:06:01.547Z,26.61
2022-08-30T12:09:08.303Z,27.10
2022-08-30T12:12:13.059Z,26.85
2022-08-30T12:15:48.149Z,27.46
2022-08-30T12:18:53.492Z,27.11
2022-08-30T12:22:06.163Z,27.27
2022-08-30T12:25:35.190Z,27.64
2022-08-30T12:28:42.102Z,28.10
2022-08-30T12:31:56.135Z,28.05
2022-08-30T12:35:07.610Z,28.02
2022-08-30T12:38:26.767Z,27.52
2022-08-30T12:41:43.479Z,27.51
2022-08-30T12:44:48.050Z,27.39
2022-08-30T12:47:58.834Z,27.31
2022-08-30T12:51:01.262Z,27.93
2022-08-30T12:54:20.794Z,28.04
2022-08-30T12:57:37.545Z,27.55
2022-08-30T13:00:47.373Z,27.78
2022-08-30T13:04:17.449Z,27.66
2022-08-30T13:07:32.540Z,27.94
2022-08-30T13:10:36.737Z,28.11
2022-08-30T13:13:51.973Z,27.87
2022-08-30T13:17:06.843Z,28.14
2022-08-30T13:20:12.747Z,28.07
2022-08-30T13:23:23.964Z,28.49
2022-08-30T13:26:29.510Z,27.74
2022-08-30T13:29:34.893Z,28.38
2022-08-30T13:32:39.056Z,28.27
2022-08-30T13:35:42.770Z,27.87
2022-08-30T13:38:45.041Z,27.78
2022-08-30T13:41:47.436Z,27.60
2022-08-30T13:44:49.443Z,27.85
2022-08-30T13:47:52.581Z,27.94
2022-08-30T13:50:56.032Z,28.04
2022-08-30T13:53:58.551Z,27.99
2022-08-30T13:57:02.885Z,27.85
2022-08-30T14:00:14.487Z,28.05
2022-08-30T14:03:18.508Z,27.94
2022-08-30T14:06:33.610Z,27.38
2022-08-30T14:09:38.605Z,26.95
2022-08-30T14:13:02.543Z,27.04
2022-08-30T14:19:29.454Z,27.15
2022-08-30T14:22:32.024Z,26.92
2022-08-30T14:25:34.932Z,26.89
2022-08-30T14:28:37.299Z,27.31
2022-08-30T14:31:41.701Z,27.08
2022-08-30T14:34:43.794Z,27.05
2022-08-30T14:37:49.020Z,27.53
2022-08-30T14:40:51.556Z,27.53
2022-08-30T14:43:53.815Z,27.51
2022-08-30T14:46:57.029Z,26.87
2022-08-30T14:50:01.315Z,26.51
2022-08-30T14:53:05.433Z,26.08
2022-08-30T14:56:13.640Z,26.03
2022-08-30T14:59:16.534Z,26.50
2022-08-30T15:02:22.124Z,26.64
2022-08-30T15:05:27.526Z,26.81
2022-08-30T15:08:33.485Z,26.34
2022-08-30T15:11:39.046Z,26.39
2022-08-30T15:14:41.592Z,25.92
2022-08-30T15:17:45.763Z,25.88
2022-08-30T15:20:49.569Z,25.44
2022-08-30T15:23:52.411Z,25.02
2022-08-30T15:26:54.793Z,24.80
2022-08-30T15:29:56.797Z,24.76
2022-08-30T15:32:59.357Z,24.97
2022-08-30T15:36:04.327Z,25.04
2022-08-30T15:39:14.005Z,25.09
2022-08-30T15:42:19.526Z,24.73
2022-08-30T15:45:22.776Z,24.59
2022-08-30T15:48:25.342Z,24.43
2022-08-30T15:51:28.641Z,24.42
2022-08-30T15:54:35.449Z,24.44
2022-08-30T15:57:37.749Z,24.23
2022-08-30T16:00:44.895Z,24.28
2022-08-30T16:03:47.770Z,24.14
2022-08-30T16:06:51.565Z,24.22
2022-08-30T16:09:54.547Z,24.10
2022-08-30T16:13:00.538Z,23.58
2022-08-30T16:16:05.718Z,23.59
2022-08-30T16:19:09.037Z,23.36
2022-08-30T16:22:11.776Z,23.23
2022-08-30T16:25:14.952Z,23.10
2022-08-30T16:28:18.024Z,22.97
2022-08-30T16:31:21.661Z,22.94
2022-08-30T16:34:24.913Z,22.76
2022-08-30T16:37:28.222Z,22.72
2022-08-30T16:40:31.213Z,22.62
2022-08-30T16:43:34.193Z,22.65
2022-08-30T16:46:37.130Z,22.46
2022-08-30T16:49:39.816Z,22.31
2022-08-30T16:52:44.322Z,22.19
2022-08-30T16:55:46.459Z,22.01
2022-08-30T16:58:49.543Z,22.00
2022-08-30T17:01:52.296Z,21.85
2022-08-30T17:04:54.631Z,21.78
2022-08-30T17:07:59.438Z,21.69
2022-08-30T17:11:01.695Z,21.65
2022-08-30T17:14:05.845Z,21.60
2022-08-30T17:17:10.698Z,21.35
2022-08-30T17:20:13.833Z,21.38
2022-08-30T17:23:15.981Z,21.10
2022-08-30T17:26:18.611Z,21.02
2022-08-30T17:29:21.699Z,20.91
2022-08-30T17:32:24.089Z,20.73
2022-08-30T17:35:27.020Z,20.66
2022-08-30T17:38:30.061Z,20.54
2022-08-30T17:41:32.936Z,20.44
2022-08-30T17:44:36.481Z,20.40
2022-08-30T17:47:40.085Z,20.31
2022-08-30T17:50:42.376Z,20.22
2022-08-30T17:53:45.112Z,20.09
2022-08-30T17:56:48.463Z,20.11
2022-08-30T17:59:50.772Z,20.05
2022-08-30T18:02:54.127Z,20.07
2022-08-30T18:05:56.525Z,19.95
2022-08-30T18:08:59.372Z,19.95
2022-08-30T18:12:01.820Z,19.82
2022-08-30T18:15:12.117Z,19.89
2022-08-30T18:18:15.482Z,19.82
2022-08-30T18:21:22.111Z,19.81
2022-08-30T18:24:25.225Z,19.73
2022-08-30T18:27:28.337Z,19.72
2022-08-30T18:30:34.717Z,19.72
2022-08-30T18:33:42.840Z,19.76
2022-08-30T18:36:46.094Z,19.76
2022-08-30T18:39:50.413Z,19.78
2022-08-30T18:42:57.393Z,19.93
2022-08-30T18:46:05.251Z,19.93
2022-08-30T18:49:07.366Z,19.82
2022-08-30T18:52:11.195Z,19.85
2022-08-30T18:55:14.123Z,19.82
2022-08-30T18:58:17.314Z,19.92
2022-08-30T19:01:23.041Z,19.93
2022-08-30T19:04:30.149Z,20.08
2022-08-30T19:07:37.762Z,20.04
2022-08-30T19:10:41.532Z,20.02
2022-08-30T19:13:45.097Z,19.98
2022-08-30T19:16:47.550Z,19.90
2022-08-30T19:19:52.404Z,19.88
2022-08-30T19:23:08.830Z,19.83
2022-08-30T19:26:11.870Z,19.77
2022-08-30T19:29:14.803Z,19.65
2022-08-30T19:32:17.115Z,19.53
2022-08-30T19:35:20.722Z,19.55
2022-08-30T19:38:23.544Z,19.47
2022-08-30T19:41:30.572Z,19.42
2022-08-30T19:44:32.652Z,19.42
2022-08-30T19:47:35.145Z,19.28
2022-08-30T19:50:37.962Z,19.45
2022-08-30T19:53:40.593Z,19.42
2022-08-30T19:56:43.807Z,19.35
2022-08-30T19:59:46.176Z,19.41
2022-08-30T20:02:51.172Z,19.20
2022-08-30T20:05:54.528Z,19.04
2022-08-30T20:12:20.500Z,19.14
2022-08-30T20:15:23.601Z,18.85
2022-08-30T20:18:26.418Z,18.45
2022-08-30T20:21:29.125Z,18.27
2022-08-30T20:24:33.402Z,18.40
2022-08-30T20:27:37.251Z,18.46
2022-08-30T20:30:39.328Z,18.40
2022-08-30T20:33:41.541Z,18.42
2022-08-30T20:36:44.049Z,18.36
2022-08-30T20:39:46.603Z,18.43
2022-08-30T20:42:49.297Z,18.25
2022-08-30T20:45:52.409Z,18.11
2022-08-30T20:48:54.492Z,18.28
2022-08-30T20:51:56.799Z,18.22
2022-08-30T20:54:58.741Z,18.18
2022-08-30T20:58:01.182Z,18.11
2022-08-30T21:01:03.957Z,18.21
2022-08-30T21:04:07.038Z,18.15
2022-08-30T21:07:09.237Z,18.12
2022-08-30T21:10:12.275Z,18.05
2022-08-30T21:13:14.471Z,18.03
2022-08-30T21:16:17.294Z,18.04
2022-08-30T21:19:24.225Z,17.99
2022-08-30T21:22:26.651Z,17.94
2022-08-30T21:25:28.958Z,17.92
2022-08-30T21:28:31.305Z,17.88
2022-08-30T21:31:33.584Z,17.87
2022-08-30T21:34:54.574Z,17.73
2022-08-30T21:37:56.788Z,17.69
2022-08-30T21:40:59.196Z,17.67
2022-08-30T21:44:03.634Z,17.64
2022-08-30T21:47:06.624Z,17.24
2022-08-30T21:50:11.729Z,17.03
2022-08-30T21:53:17.145Z,17.04
2022-08-30T21:56:22.074Z,17.02
2022-08-30T21:59:24.308Z,16.99
2022-08-30T22:02:26.318Z,16.87
2022-08-30T22:05:28.426Z,16.79
2022-08-30T22:08:30.446Z,16.76
2022-08-30T22:11:34.555Z,16.79
2022-08-30T22:14:36.859Z,16.68
2022-08-30T22:17:39.169Z,16.58
2022-08-30T22:20:41.452Z,16.66
2022-08-30T22:23:45.183Z,16.78
2022-08-30T22:26:47.680Z,16.58
2022-08-30T22:29:50.130Z,16.57
2022-08-30T22:32:52.671Z,16.49
2022-08-30T22:35:55.587Z,16.56
2022-08-30T22:38:58.215Z,16.63
2022-08-30T22:42:00.432Z,16.69
2022-08-30T22:45:02.502Z,16.69
2022-08-30T22:48:04.467Z,16.63
2022-08-30T22:51:07.419Z,16.62
2022-08-30T22:54:10.413Z,16.54
2022-08-30T22:57:15.905Z,16.51
2022-08-30T23:00:20.268Z,16.51
2022-08-30T23:03:22.652Z,16.38
2022-08-30T23:06:25.413Z,16.22
2022-08-30T23:09:29.090Z,16.21
2022-08-30T23:12:31.502Z,16.33
2022-08-30T23:15:33.289Z,16.41
2022-08-30T23:18:38.347Z,16.23
2022-08-30T23:21:40.161Z,16.22
2022-08-30T23:25:00.721Z,16.20
2022-08-30T23:28:21.268Z,16.19
2022-08-30T23:31:41.955Z,16.15
2022-08-30T23:35:03.096Z,16.04
2022-08-30T23:38:24.477Z,16.08
2022-08-30T23:41:45.041Z,16.07
2022-08-30T23:45:05.650Z,16.04
2022-08-30T23:48:26.317Z,15.80
2022-08-30T23:51:47.383Z,15.78
2022-08-30T23:55:08.351Z,15.77
2022-08-30T23:58:28.848Z,15.61
